Time;durP1;ratioP1;P1;durP2;ratioP2;P2;SDS_P1;SDS_P2;PMS_P1;PMS_P2;Temp;Humidity;BMP_temperature;BMP_pressure;BME280_temperature;BME280_humidity;BME280_pressure;Samples;Min_cycle;Max_cycle;Signal;HPM_P1;HPM_P2
2022/10/16 00:00:53;;;;;;;4.32;2.42;;;16.70;99.90;;;;;;5044314;28;20181;-87
2022/10/16 00:03:18;;;;;;;5.43;2.80;;;16.60;99.90;;;;;;5041073;28;20295;-88
2022/10/16 00:05:45;;;;;;;6.07;2.42;;;16.50;99.90;;;;;;5044785;28;20193;-87
2022/10/16 00:08:12;;;;;;;2.50;2.30;;;16.60;99.90;;;;;;5025059;28;20207;-87
2022/10/16 00:10:38;;;;;;;5.47;2.40;;;16.60;99.90;;;;;;5048628;28;20207;-87
2022/10/16 00:13:04;;;;;;;3.53;2.25;;;16.70;99.90;;;;;;5047659;28;20201;-87
2022/10/16 00:15:32;;;;;;;2.97;2.42;;;16.60;99.90;;;;;;5048023;28;20648;-87
2022/10/16 00:17:58;;;;;;;2.58;2.35;;;16.60;99.90;;;;;;5041416;28;20184;-87
2022/10/16 00:20:24;;;;;;;3.70;2.25;;;16.60;99.90;;;;;;5041044;28;20192;-87
2022/10/16 00:22:49;;;;;;;2.42;2.22;;;16.60;99.90;;;;;;5041423;28;20224;-87
2022/10/16 00:25:15;;;;;;;5.00;2.25;;;16.50;99.90;;;;;;5042990;28;20188;-87
2022/10/16 00:27:41;;;;;;;2.70;2.45;;;16.60;99.90;;;;;;5043722;28;20191;-87
2022/10/16 00:30:08;;;;;;;4.47;2.50;;;16.60;99.90;;;;;;5051024;28;20209;-87
2022/10/16 00:32:33;;;;;;;3.35;2.47;;;16.60;99.90;;;;;;5048263;28;20200;-87
2022/10/16 00:34:59;;;;;;;2.60;2.17;;;16.70;99.90;;;;;;5041669;28;20648;-87
2022/10/16 00:37:25;;;;;;;2.30;2.20;;;16.60;99.90;;;;;;5040680;28;20193;-87
2022/10/16 00:39:50;;;;;;;3.70;2.42;;;16.70;99.90;;;;;;5044226;28;20204;-87
2022/10/16 00:42:18;;;;;;;4.25;2.50;;;16.70;99.90;;;;;;5046033;28;20212;-87
2022/10/16 00:44:49;;;;;;;5.55;2.45;;;16.70;99.90;;;;;;5045379;28;20185;-87
2022/10/16 00:47:30;;;;;;;2.30;2.10;;;16.70;99.90;;;;;;5048635;28;20177;-87
2022/10/16 00:50:05;;;;;;;2.47;2.25;;;16.70;99.90;;;;;;5052734;28;20224;-87
2022/10/16 00:52:32;;;;;;;5.90;2.50;;;16.80;99.90;;;;;;5045566;28;20562;-87
2022/10/16 00:54:58;;;;;;;4.45;2.30;;;16.70;99.90;;;;;;5044582;28;20188;-87
2022/10/16 00:57:25;;;;;;;2.88;2.67;;;16.60;99.90;;;;;;5042567;28;20185;-87
2022/10/16 00:59:51;;;;;;;3.10;2.67;;;16.60;99.90;;;;;;5049090;28;20196;-87
2022/10/16 01:02:17;;;;;;;5.82;2.75;;;16.50;99.90;;;;;;5051455;28;20223;-87
2022/10/16 01:04:52;;;;;;;2.40;2.20;;;16.30;99.90;;;;;;5059166;28;20279;-87
2022/10/16 01:07:55;;;;;;;3.17;2.40;;;16.40;99.90;;;;;;5048762;28;20712;-87
2022/10/16 01:10:43;;;;;;;2.72;2.50;;;16.30;99.90;;;;;;5046977;28;20197;-87
2022/10/16 01:13:24;;;;;;;2.80;2.58;;;16.30;99.90;;;;;;5044004;28;20266;-87
2022/10/16 01:16:02;;;;;;;3.47;2.60;;;16.30;99.90;;;;;;5048770;28;20173;-87
2022/10/16 01:18:34;;;;;;;3.25;2.58;;;16.40;99.90;;;;;;5053097;28;20226;-87
2022/10/16 01:21:08;;;;;;;8.40;2.95;;;16.50;99.90;;;;;;5050880;28;20188;-87
2022/10/16 01:23:44;;;;;;;2.78;2.40;;;16.60;99.90;;;;;;5052241;28;20201;-87
2022/10/16 01:26:18;;;;;;;2.63;2.40;;;16.50;99.90;;;;;;5058244;28;20186;-87
2022/10/16 01:29:09;;;;;;;3.85;2.65;;;16.50;99.90;;;;;;5053214;28;20176;-87
2022/10/16 01:31:39;;;;;;;3.13;2.50;;;16.50;99.90;;;;;;5046603;28;20211;-87
2022/10/16 01:34:40;;;;;;;3.38;2.67;;;16.40;99.90;;;;;;5050684;28;20209;-87
2022/10/16 01:37:11;;;;;;;3.08;2.70;;;16.50;99.90;;;;;;5049200;28;20184;-86
2022/10/16 01:39:39;;;;;;;5.00;3.20;;;16.60;99.90;;;;;;5052017;28;20183;-87
2022/10/16 01:42:11;;;;;;;3.00;2.80;;;16.70;99.90;;;;;;5046427;28;20216;-87
2022/10/16 01:44:38;;;;;;;3.42;2.67;;;16.60;99.90;;;;;;5059617;28;20313;-87
2022/10/16 01:47:07;;;;;;;3.30;3.00;;;16.50;99.90;;;;;;5059530;28;20224;-86
2022/10/16 01:49:36;;;;;;;4.95;3.15;;;16.50;99.90;;;;;;5066671;28;20211;-86
2022/10/16 01:52:09;;;;;;;2.83;2.63;;;16.50;99.90;;;;;;5060030;28;20232;-87
2022/10/16 01:54:37;;;;;;;3.05;2.75;;;16.40;99.90;;;;;;5052574;28;20215;-87
2022/10/16 01:57:05;;;;;;;8.07;2.78;;;16.50;99.90;;;;;;5051270;28;20195;-87
2022/10/16 01:59:35;;;;;;;2.92;2.55;;;16.50;99.90;;;;;;5058462;28;20263;-87
2022/10/16 02:02:07;;;;;;;3.42;2.33;;;16.50;99.90;;;;;;5051380;28;20236;-87
2022/10/16 02:04:54;;;;;;;4.30;2.58;;;16.50;99.90;;;;;;5044478;28;20524;-87
2022/10/16 02:07:20;;;;;;;3.70;3.28;;;16.50;99.90;;;;;;5049582;28;20192;-87
2022/10/16 02:09:46;;;;;;;3.42;2.75;;;16.60;99.90;;;;;;5049333;28;20200;-87
2022/10/16 02:12:19;;;;;;;3.60;2.38;;;16.50;99.90;;;;;;5046333;28;20306;-87
2022/10/16 02:14:45;;;;;;;2.50;2.30;;;16.50;99.90;;;;;;5038563;28;20427;-87
2022/10/16 02:17:16;;;;;;;3.05;2.40;;;16.50;99.90;;;;;;5048825;28;20188;-88
2022/10/16 02:19:44;;;;;;;2.53;2.33;;;16.50;99.90;;;;;;5040476;28;20185;-87
2022/10/16 02:22:17;;;;;;;5.43;2.70;;;16.40;99.90;;;;;;5036671;28;20737;-87
2022/10/16 02:24:53;;;;;;;3.53;2.30;;;16.40;99.90;;;;;;5042486;28;20201;-87
2022/10/16 02:27:28;;;;;;;4.15;2.38;;;16.30;99.90;;;;;;5048444;28;20267;-88
2022/10/16 02:29:59;;;;;;;4.28;2.95;;;16.20;99.90;;;;;;5051337;28;20450;-87
2022/10/16 02:32:30;;;;;;;2.72;2.30;;;16.30;99.90;;;;;;5048567;28;20210;-87
2022/10/16 02:34:57;;;;;;;5.63;2.60;;;16.30;99.90;;;;;;5057583;28;20169;-87
2022/10/16 02:37:24;;;;;;;3.40;2.50;;;16.40;99.90;;;;;;5054949;28;20188;-87
2022/10/16 02:39:50;;;;;;;3.13;2.83;;;16.40;99.90;;;;;;5044820;28;20181;-87
2022/10/16 02:42:18;;;;;;;2.78;2.58;;;16.40;99.90;;;;;;5043987;28;20214;-88
2022/10/16 02:44:44;;;;;;;2.60;2.40;;;16.40;99.90;;;;;;5047968;28;20531;-87
2022/10/16 02:47:09;;;;;;;3.97;2.40;;;16.40;99.90;;;;;;5042786;28;20195;-87
2022/10/16 02:49:35;;;;;;;3.83;2.38;;;16.30;99.90;;;;;;5045956;28;20855;-87
2022/10/16 02:52:01;;;;;;;2.22;2.13;;;16.30;99.90;;;;;;5051739;28;20535;-87
2022/10/16 02:54:26;;;;;;;3.03;2.65;;;16.30;99.90;;;;;;5059751;28;20235;-87
2022/10/16 02:56:52;;;;;;;5.25;2.60;;;16.30;99.90;;;;;;5057593;28;20187;-87
2022/10/16 02:59:18;;;;;;;3.88;2.17;;;16.30;99.90;;;;;;5043466;28;20204;-87
2022/10/16 03:01:43;;;;;;;2.88;2.45;;;16.30;99.90;;;;;;5048261;28;20207;-87
2022/10/16 03:04:09;;;;;;;2.63;2.42;;;16.30;99.90;;;;;;5051346;28;20326;-86
2022/10/16 03:06:35;;;;;;;4.93;2.22;;;16.40;99.90;;;;;;5049594;28;20218;-87
2022/10/16 03:09:01;;;;;;;2.22;2.13;;;16.30;99.90;;;;;;5048914;28;20177;-87
2022/10/16 03:11:28;;;;;;;2.60;2.35;;;16.30;99.90;;;;;;5050923;28;20283;-87
2022/10/16 03:13:53;;;;;;;2.55;2.35;;;16.30;99.90;;;;;;5051935;28;20188;-86
2022/10/16 03:16:19;;;;;;;2.63;2.42;;;16.30;99.90;;;;;;5050354;28;20743;-87
2022/10/16 03:18:49;;;;;;;2.70;2.50;;;16.20;99.90;;;;;;5046787;28;20193;-87
2022/10/16 03:21:14;;;;;;;3.65;2.70;;;16.20;99.90;;;;;;5049020;28;20188;-87
2022/10/16 03:23:40;;;;;;;2.58;2.38;;;16.30;99.90;;;;;;5052409;28;20357;-87
2022/10/16 03:26:06;;;;;;;2.55;2.35;;;16.30;99.90;;;;;;5047795;28;20210;-87
2022/10/16 03:28:31;;;;;;;2.70;2.33;;;16.20;99.90;;;;;;5050149;28;20199;-87
2022/10/16 03:30:57;;;;;;;3.00;2.67;;;16.30;99.90;;;;;;5051287;28;20224;-87
2022/10/16 03:33:23;;;;;;;3.08;2.45;;;16.30;99.90;;;;;;5042270;28;20209;-87
2022/10/16 03:35:53;;;;;;;3.28;2.60;;;16.20;99.90;;;;;;5048905;28;20179;-86
2022/10/16 03:38:19;;;;;;;3.53;2.55;;;16.20;99.90;;;;;;5050873;28;20191;-87
2022/10/16 03:40:44;;;;;;;3.08;2.47;;;16.20;99.90;;;;;;5048673;28;20185;-87
2022/10/16 03:43:10;;;;;;;2.83;2.60;;;16.10;99.90;;;;;;5046739;28;20232;-87
2022/10/16 03:45:36;;;;;;;2.70;2.50;;;16.20;99.90;;;;;;5058099;28;20192;-87
2022/10/16 03:48:03;;;;;;;5.10;2.50;;;16.20;99.90;;;;;;5052257;28;20195;-86
2022/10/16 03:50:30;;;;;;;3.13;2.70;;;16.20;99.90;;;;;;5044383;28;20559;-86
2022/10/16 03:52:55;;;;;;;3.55;2.92;;;16.10;99.90;;;;;;5042020;28;20205;-87
2022/10/16 03:55:21;;;;;;;4.03;2.83;;;16.10;99.90;;;;;;5043306;28;20180;-87
2022/10/16 03:57:47;;;;;;;3.35;2.72;;;16.20;99.90;;;;;;5044420;28;20184;-87
2022/10/16 04:00:13;;;;;;;2.72;2.60;;;16.20;99.90;;;;;;5050178;28;20212;-87
2022/10/16 04:02:39;;;;;;;2.42;2.25;;;16.20;99.90;;;;;;5051839;28;20662;-87
2022/10/16 04:05:05;;;;;;;3.33;2.25;;;16.20;99.90;;;;;;5051728;28;20185;-87
2022/10/16 04:07:30;;;;;;;3.25;2.50;;;16.20;99.90;;;;;;5048631;28;20188;-87
2022/10/16 04:09:58;;;;;;;8.50;2.63;;;16.20;99.90;;;;;;5046330;28;20220;-87
2022/10/16 04:12:24;;;;;;;2.40;2.20;;;16.20;99.90;;;;;;5045753;28;20645;-87
2022/10/16 04:14:50;;;;;;;2.78;2.38;;;16.10;99.90;;;;;;5047268;28;20180;-87
2022/10/16 04:17:15;;;;;;;2.67;2.58;;;16.10;99.90;;;;;;5056332;28;20199;-87
2022/10/16 04:19:41;;;;;;;4.05;2.40;;;16.20;99.90;;;;;;5048596;28;20905;-87
2022/10/16 04:22:07;;;;;;;4.45;2.75;;;16.20;99.90;;;;;;5053495;28;20290;-87
2022/10/16 04:24:33;;;;;;;3.90;2.55;;;16.10;99.90;;;;;;5049422;28;20213;-87
2022/10/16 04:26:58;;;;;;;4.20;2.58;;;16.10;99.90;;;;;;5042772;28;20220;-87
2022/10/16 04:29:24;;;;;;;2.83;2.25;;;16.10;99.90;;;;;;5048345;28;20198;-87
2022/10/16 04:31:49;;;;;;;3.33;2.50;;;16.20;99.90;;;;;;5041682;28;20213;-87
2022/10/16 04:34:15;;;;;;;2.20;2.10;;;16.10;99.90;;;;;;5048736;28;20196;-87
2022/10/16 04:36:41;;;;;;;3.85;2.30;;;16.10;99.90;;;;;;5055059;28;20198;-87
2022/10/16 04:39:06;;;;;;;7.03;2.45;;;16.10;99.90;;;;;;5053776;28;20195;-87
2022/10/16 04:41:32;;;;;;;2.78;2.10;;;16.10;99.90;;;;;;5049875;28;20365;-87
2022/10/16 04:43:58;;;;;;;2.30;2.10;;;16.10;99.90;;;;;;5045485;28;20200;-87
2022/10/16 04:46:23;;;;;;;2.63;2.42;;;16.20;99.90;;;;;;5052168;28;20188;-87
2022/10/16 04:48:49;;;;;;;2.47;2.28;;;16.20;99.90;;;;;;5055451;28;20192;-87
2022/10/16 04:51:14;;;;;;;4.32;2.40;;;16.20;99.90;;;;;;5050585;28;20205;-87
2022/10/16 04:53:40;;;;;;;4.30;2.55;;;16.20;99.90;;;;;;5060047;28;20222;-87
2022/10/16 04:56:06;;;;;;;4.63;2.30;;;16.30;99.90;;;;;;5055767;28;20190;-87
2022/10/16 04:58:32;;;;;;;2.42;2.22;;;16.30;99.90;;;;;;5049668;28;20247;-87
2022/10/16 05:00:58;;;;;;;7.07;2.30;;;16.20;99.90;;;;;;5048141;28;20193;-87
2022/10/16 05:03:24;;;;;;;2.78;2.47;;;16.20;99.90;;;;;;5050544;28;20204;-87
2022/10/16 05:05:49;;;;;;;2.40;2.20;;;16.20;99.90;;;;;;5049647;28;20194;-87
2022/10/16 05:08:16;;;;;;;4.03;2.60;;;16.10;99.90;;;;;;5050991;28;20185;-87
2022/10/16 05:10:43;;;;;;;2.20;2.10;;;16.00;99.90;;;;;;5052387;28;20204;-87
2022/10/16 05:13:09;;;;;;;2.80;2.60;;;16.00;99.90;;;;;;5055213;28;20208;-87
2022/10/16 05:15:35;;;;;;;2.72;2.50;;;16.00;99.90;;;;;;5056226;28;20211;-87
2022/10/16 05:18:00;;;;;;;2.70;2.50;;;16.00;99.90;;;;;;5049496;28;20192;-87
2022/10/16 05:20:26;;;;;;;3.70;2.42;;;16.00;99.90;;;;;;5041851;28;20223;-88
2022/10/16 05:22:52;;;;;;;6.38;3.22;;;16.10;99.90;;;;;;5050173;28;20248;-87
2022/10/16 05:25:18;;;;;;;5.60;2.47;;;16.10;99.90;;;;;;5053062;28;20199;-87
2022/10/16 05:27:48;;;;;;;2.88;2.67;;;16.10;99.90;;;;;;5052496;28;20188;-87
2022/10/16 05:30:14;;;;;;;5.18;2.75;;;16.20;99.90;;;;;;5054870;28;20282;-87
2022/10/16 05:32:39;;;;;;;4.40;2.75;;;16.10;99.90;;;;;;5058479;28;20216;-87
2022/10/16 05:35:05;;;;;;;3.00;2.70;;;16.10;99.90;;;;;;5057263;28;20192;-87
2022/10/16 05:37:31;;;;;;;4.80;4.40;;;16.10;99.90;;;;;;5051176;28;20181;-87
2022/10/16 05:39:57;;;;;;;6.35;3.50;;;16.10;99.90;;;;;;5053860;28;20195;-87
2022/10/16 05:42:22;;;;;;;3.90;3.53;;;16.20;99.90;;;;;;5058096;28;20223;-87
2022/10/16 05:44:48;;;;;;;3.20;2.90;;;16.30;99.90;;;;;;5052145;28;20193;-87
2022/10/16 05:47:14;;;;;;;2.92;2.67;;;16.30;99.90;;;;;;5049137;28;20193;-87
2022/10/16 05:49:40;;;;;;;2.80;2.60;;;16.30;99.90;;;;;;5055415;28;20212;-87
2022/10/16 05:52:06;;;;;;;3.50;3.20;;;16.20;99.90;;;;;;5055216;28;20197;-87
2022/10/16 05:54:32;;;;;;;3.33;2.60;;;16.10;99.90;;;;;;5052209;28;20192;-87
2022/10/16 05:56:57;;;;;;;6.28;2.60;;;16.10;99.90;;;;;;5047049;28;20202;-87
2022/10/16 05:59:23;;;;;;;4.50;2.70;;;16.00;99.90;;;;;;5050332;28;20223;-86
2022/10/16 06:01:49;;;;;;;3.63;2.83;;;16.10;99.90;;;;;;5054079;28;20273;-87
2022/10/16 06:04:14;;;;;;;5.38;3.17;;;16.20;99.90;;;;;;5051927;28;20269;-87
2022/10/16 06:06:40;;;;;;;3.70;2.78;;;16.10;99.90;;;;;;5054038;28;20198;-87
2022/10/16 06:09:06;;;;;;;3.53;2.75;;;16.10;99.90;;;;;;5048513;28;20517;-87
2022/10/16 06:11:33;;;;;;;3.17;2.70;;;16.00;99.90;;;;;;5050828;28;20879;-87
2022/10/16 06:14:06;;;;;;;4.65;3.00;;;15.90;99.90;;;;;;5044251;28;20227;-87
2022/10/16 06:16:34;;;;;;;7.25;3.40;;;16.00;99.90;;;;;;5050658;28;20219;-87
2022/10/16 06:19:00;;;;;;;3.45;3.05;;;16.00;99.90;;;;;;5050929;28;20208;-87
2022/10/16 06:21:27;;;;;;;4.82;3.10;;;16.10;99.90;;;;;;5051747;28;20223;-87
2022/10/16 06:23:54;;;;;;;4.13;2.70;;;16.10;99.90;;;;;;5048758;28;20384;-87
2022/10/16 06:26:22;;;;;;;4.28;3.15;;;16.10;99.90;;;;;;5054187;28;20191;-87
2022/10/16 06:28:49;;;;;;;2.95;2.53;;;16.10;99.90;;;;;;5061083;28;20197;-87
2022/10/16 06:31:15;;;;;;;6.45;2.78;;;16.10;99.90;;;;;;5045258;28;20212;-87
2022/10/16 06:33:41;;;;;;;4.10;2.65;;;16.10;99.90;;;;;;5057038;28;20207;-87
2022/10/16 06:36:13;;;;;;;4.20;2.60;;;16.10;99.90;;;;;;5050573;28;20209;-87
2022/10/16 06:38:39;;;;;;;3.95;2.65;;;16.00;99.90;;;;;;5053691;28;20191;-87
2022/10/16 06:41:06;;;;;;;4.13;2.58;;;16.10;99.90;;;;;;5056226;28;20198;-87
2022/10/16 06:43:35;;;;;;;3.00;2.80;;;16.10;99.90;;;;;;5049668;28;20182;-87
2022/10/16 06:46:01;;;;;;;3.17;2.58;;;16.10;99.90;;;;;;5042102;28;20194;-87
2022/10/16 06:48:28;;;;;;;5.22;2.60;;;16.20;99.90;;;;;;5034976;28;20260;-87
2022/10/16 06:51:02;;;;;;;3.80;2.50;;;16.30;99.90;;;;;;5044810;28;20579;-87
2022/10/16 06:53:30;;;;;;;3.85;2.65;;;16.30;99.90;;;;;;5058881;28;20315;-87
2022/10/16 06:55:56;;;;;;;4.47;3.03;;;16.30;99.90;;;;;;5058347;28;20182;-87
2022/10/16 06:58:23;;;;;;;3.95;2.70;;;16.30;99.90;;;;;;5052962;28;20597;-87
2022/10/16 07:00:54;;;;;;;2.60;2.40;;;16.30;99.90;;;;;;5047766;28;20184;-87
2022/10/16 07:03:20;;;;;;;2.95;2.70;;;16.20;99.90;;;;;;5047883;28;20289;-87
2022/10/16 07:05:45;;;;;;;3.28;2.97;;;16.20;99.90;;;;;;5047774;28;20200;-87
2022/10/16 07:08:11;;;;;;;4.22;2.78;;;16.20;99.90;;;;;;5042404;28;20192;-87
2022/10/16 07:10:37;;;;;;;4.20;3.03;;;16.20;99.90;;;;;;5042770;28;20220;-87
2022/10/16 07:13:03;;;;;;;3.10;2.78;;;16.30;99.90;;;;;;5047825;28;20215;-87
2022/10/16 07:15:29;;;;;;;3.38;3.08;;;16.40;99.90;;;;;;5048330;28;20181;-87
2022/10/16 07:17:54;;;;;;;3.22;2.90;;;16.50;99.90;;;;;;5041713;28;20240;-88
2022/10/16 07:20:20;;;;;;;7.15;3.08;;;16.60;99.90;;;;;;5044872;28;20185;-87
2022/10/16 07:22:46;;;;;;;3.53;3.00;;;16.60;99.90;;;;;;5044431;28;20316;-87
2022/10/16 07:25:12;;;;;;;6.43;3.30;;;16.70;99.90;;;;;;5038861;28;20189;-87
2022/10/16 07:27:38;;;;;;;5.90;3.35;;;16.80;99.90;;;;;;5044636;28;20196;-87
2022/10/16 07:30:04;;;;;;;7.05;2.83;;;16.70;99.90;;;;;;5042694;28;20817;-87
2022/10/16 07:32:30;;;;;;;2.80;2.60;;;16.70;99.90;;;;;;5046705;28;20208;-87
2022/10/16 07:34:56;;;;;;;5.35;2.95;;;16.80;99.90;;;;;;5046123;28;20276;-86
2022/10/16 07:37:22;;;;;;;3.15;2.85;;;16.70;99.90;;;;;;5048611;28;20211;-86
2022/10/16 07:39:47;;;;;;;7.07;3.28;;;16.60;99.90;;;;;;5052857;28;20181;-86
2022/10/16 07:42:13;;;;;;;4.00;3.00;;;16.60;99.90;;;;;;5037004;28;20212;-87
2022/10/16 07:44:39;;;;;;;3.67;3.13;;;16.60;99.90;;;;;;5046493;28;20339;-87
2022/10/16 07:47:06;;;;;;;5.72;3.20;;;16.60;99.90;;;;;;5042654;28;20208;-86
2022/10/16 07:49:31;;;;;;;3.13;2.80;;;16.80;99.90;;;;;;5040082;28;20184;-87
2022/10/16 07:51:59;;;;;;;4.90;3.40;;;17.00;99.90;;;;;;5044947;28;20208;-87
2022/10/16 07:54:25;;;;;;;3.55;3.05;;;16.90;99.90;;;;;;5036486;28;20244;-87
2022/10/16 07:56:50;;;;;;;3.28;2.85;;;16.80;99.90;;;;;;5052339;28;20211;-87
2022/10/16 07:59:19;;;;;;;3.13;2.85;;;17.00;99.90;;;;;;5038134;28;20188;-86
2022/10/16 08:01:45;;;;;;;5.45;2.85;;;17.00;99.90;;;;;;5040129;28;20224;-87
2022/10/16 08:04:10;;;;;;;4.18;2.88;;;17.10;99.90;;;;;;5057240;28;20189;-88
2022/10/16 08:06:38;;;;;;;3.13;2.83;;;17.00;99.90;;;;;;5053321;28;20181;-88
2022/10/16 08:09:05;;;;;;;2.97;2.75;;;17.00;99.90;;;;;;5053302;28;20237;-88
2022/10/16 08:11:31;;;;;;;3.03;2.75;;;16.90;99.90;;;;;;5049712;28;20261;-87
2022/10/16 08:13:57;;;;;;;3.53;3.13;;;16.90;99.90;;;;;;5047302;28;20234;-88
2022/10/16 08:16:23;;;;;;;5.68;3.28;;;16.90;99.90;;;;;;5044529;28;20188;-88
2022/10/16 08:18:51;;;;;;;5.90;3.25;;;16.80;99.90;;;;;;5037417;28;20183;-87
2022/10/16 08:21:22;;;;;;;3.30;3.00;;;16.80;99.90;;;;;;5040462;28;20305;-88
2022/10/16 08:23:48;;;;;;;4.95;3.50;;;16.90;99.90;;;;;;5059503;28;20258;-87
2022/10/16 08:26:14;;;;;;;3.60;3.30;;;16.90;99.90;;;;;;5067255;28;20194;-87
2022/10/16 08:28:40;;;;;;;3.40;3.10;;;16.90;99.90;;;;;;5058114;28;20175;-86
2022/10/16 08:31:14;;;;;;;3.08;2.78;;;17.10;99.90;;;;;;5059384;28;20200;-87
2022/10/16 08:33:42;;;;;;;3.60;3.03;;;17.20;99.90;;;;;;5048684;28;20183;-87
2022/10/16 08:36:10;;;;;;;3.38;3.08;;;17.40;99.90;;;;;;5059610;28;20200;-87
2022/10/16 08:38:37;;;;;;;4.75;3.30;;;17.70;99.90;;;;;;5070521;28;20172;-88
2022/10/16 08:41:27;;;;;;;4.60;2.90;;;17.80;99.90;;;;;;5057098;28;20226;-87
2022/10/16 08:44:11;;;;;;;5.18;2.95;;;17.90;99.90;;;;;;5041417;28;20200;-88
2022/10/16 08:46:49;;;;;;;4.57;3.10;;;17.70;99.90;;;;;;5027576;28;20206;-88
2022/10/16 08:49:15;;;;;;;4.38;2.90;;;18.00;99.90;;;;;;5045242;28;20651;-88
2022/10/16 08:51:42;;;;;;;3.78;3.00;;;17.90;99.90;;;;;;5032864;28;20221;-88
2022/10/16 08:54:27;;;;;;;3.22;2.80;;;18.00;99.90;;;;;;5041713;28;20188;-87
2022/10/16 08:57:00;;;;;;;5.28;2.95;;;18.20;99.90;;;;;;5042623;28;20172;-87
2022/10/16 08:59:26;;;;;;;2.80;2.58;;;18.30;99.90;;;;;;5042275;28;20541;-88
2022/10/16 09:01:53;;;;;;;3.33;3.00;;;18.40;99.90;;;;;;5041807;28;20201;-87
2022/10/16 09:04:27;;;;;;;3.60;3.00;;;18.40;99.90;;;;;;5045955;28;20192;-88
2022/10/16 09:07:04;;;;;;;7.43;3.00;;;18.50;99.90;;;;;;5049864;28;20534;-87
2022/10/16 09:09:35;;;;;;;3.20;2.90;;;18.70;99.90;;;;;;5034381;28;20188;-88
2022/10/16 09:12:17;;;;;;;3.03;2.80;;;18.70;99.90;;;;;;5035587;28;20209;-88
2022/10/16 09:15:07;;;;;;;3.55;3.22;;;18.60;99.90;;;;;;5045396;28;20176;-87
2022/10/16 09:17:48;;;;;;;3.28;2.72;;;18.60;99.90;;;;;;5048652;28;20244;-88
2022/10/16 09:20:28;;;;;;;3.25;2.95;;;18.70;99.90;;;;;;5046745;28;20192;-88
2022/10/16 09:23:14;;;;;;;2.97;2.67;;;18.60;99.90;;;;;;5053013;28;20243;-88
2022/10/16 09:25:44;;;;;;;5.10;2.80;;;18.60;99.90;;;;;;5054124;28;20659;-88
2022/10/16 09:28:10;;;;;;;3.55;3.00;;;18.70;99.90;;;;;;5042076;28;20193;-88
2022/10/16 09:30:37;;;;;;;4.53;2.92;;;18.60;99.90;;;;;;5049826;28;20209;-88
2022/10/16 09:33:04;;;;;;;4.53;2.80;;;18.80;99.90;;;;;;5049701;28;20299;-89
2022/10/16 09:35:41;;;;;;;5.03;3.00;;;18.80;99.90;;;;;;5043569;28;20184;-88
2022/10/16 09:38:07;;;;;;;5.20;2.88;;;18.80;99.90;;;;;;5047945;28;20215;-88
2022/10/16 09:40:38;;;;;;;4.32;3.15;;;19.00;99.90;;;;;;5046195;28;20195;-88
2022/10/16 09:43:19;;;;;;;3.97;3.10;;;19.20;99.90;;;;;;5046616;28;20197;-88
2022/10/16 09:46:04;;;;;;;6.53;3.10;;;19.30;99.90;;;;;;5044284;28;20214;-88
2022/10/16 09:48:49;;;;;;;3.17;2.97;;;19.30;99.90;;;;;;5054715;28;20247;-88
2022/10/16 09:51:35;;;;;;;5.13;3.25;;;19.40;99.90;;;;;;5046393;28;20233;-88
2022/10/16 09:54:07;;;;;;;3.17;2.88;;;19.70;99.90;;;;;;5065238;28;20282;-88
2022/10/16 09:56:39;;;;;;;4.40;3.10;;;19.90;99.90;;;;;;5048385;28;20185;-88
2022/10/16 09:59:17;;;;;;;3.55;3.25;;;20.00;99.90;;;;;;5054123;28;20188;-88
2022/10/16 10:01:47;;;;;;;3.80;3.47;;;20.20;99.90;;;;;;5056697;28;20215;-88
2022/10/16 10:04:14;;;;;;;4.07;3.17;;;20.20;99.90;;;;;;5050433;28;20185;-88
2022/10/16 10:06:51;;;;;;;6.25;3.60;;;20.00;99.90;;;;;;5054355;28;20185;-88
2022/10/16 10:09:22;;;;;;;4.05;3.20;;;19.90;99.90;;;;;;5048199;28;20184;-88
2022/10/16 10:11:52;;;;;;;3.45;3.15;;;20.00;99.90;;;;;;5052619;28;20306;-88
2022/10/16 10:14:28;;;;;;;4.35;3.20;;;20.10;99.90;;;;;;5048842;28;20344;-89
2022/10/16 10:17:09;;;;;;;5.95;4.70;;;20.60;99.90;;;;;;5066429;28;20589;-88
2022/10/16 10:20:15;;;;;;;3.95;3.30;;;21.10;98.60;;;;;;5050142;28;20208;-88
2022/10/16 10:22:45;;;;;;;3.55;3.22;;;21.20;98.00;;;;;;5040073;28;20232;-89
2022/10/16 10:25:11;;;;;;;3.67;3.33;;;21.30;97.30;;;;;;5044050;28;20232;-88
2022/10/16 10:27:40;;;;;;;5.43;3.15;;;21.60;97.10;;;;;;5044126;28;20648;-88
2022/10/16 10:30:33;;;;;;;3.60;3.08;;;21.80;95.70;;;;;;5034526;28;20216;-88
2022/10/16 10:33:26;;;;;;;3.45;3.10;;;21.90;94.30;;;;;;5035956;28;20232;-89
2022/10/16 10:36:12;;;;;;;3.13;2.90;;;22.00;93.90;;;;;;5038727;28;20185;-88
2022/10/16 10:38:52;;;;;;;3.75;3.17;;;22.50;92.20;;;;;;5043821;28;20192;-89
2022/10/16 10:41:42;;;;;;;6.60;3.25;;;22.80;90.80;;;;;;5038335;28;20200;-88
2022/10/16 10:44:26;;;;;;;3.20;2.90;;;22.70;90.00;;;;;;5044106;28;20231;-89
2022/10/16 10:47:40;;;;;;;5.15;3.25;;;22.00;93.20;;;;;;5047009;28;20183;-88
2022/10/16 10:50:30;;;;;;;4.00;3.50;;;21.80;93.10;;;;;;5041069;28;20283;-89
2022/10/16 10:53:17;;;;;;;5.20;3.10;;;21.50;96.70;;;;;;5043486;28;20200;-89
2022/10/16 10:55:57;;;;;;;3.58;2.95;;;21.50;94.30;;;;;;5044696;28;20183;-88
2022/10/16 10:58:53;;;;;;;4.20;3.10;;;21.70;93.00;;;;;;5044262;28;20614;-88
2022/10/16 11:01:40;;;;;;;3.67;3.13;;;21.60;92.10;;;;;;5046242;28;20180;-89
2022/10/16 11:04:18;;;;;;;6.13;3.50;;;21.50;92.10;;;;;;5052073;28;20271;-89
2022/10/16 11:06:50;;;;;;;4.30;3.20;;;21.50;93.40;;;;;;5049990;28;20184;-89
2022/10/16 11:09:22;;;;;;;4.10;3.13;;;21.20;93.30;;;;;;5047865;28;20180;-89
2022/10/16 11:12:11;;;;;;;4.85;3.30;;;21.10;93.80;;;;;;5043063;28;20726;-89
2022/10/16 11:14:49;;;;;;;4.55;3.10;;;21.10;95.20;;;;;;5041306;28;20217;-89
2022/10/16 11:17:38;;;;;;;4.55;3.30;;;21.00;96.10;;;;;;5045745;28;20181;-89
2022/10/16 11:20:15;;;;;;;3.70;3.10;;;21.40;95.50;;;;;;5041234;28;20185;-89
2022/10/16 11:22:44;;;;;;;3.50;3.20;;;21.50;94.60;;;;;;5052405;28;20226;-89
2022/10/16 11:25:18;;;;;;;4.05;3.58;;;21.60;94.40;;;;;;5034905;28;20996;-89
2022/10/16 11:27:55;;;;;;;3.22;2.92;;;21.80;93.40;;;;;;5044914;28;20189;-89
2022/10/16 11:30:27;;;;;;;3.47;3.17;;;21.80;95.00;;;;;;5033520;28;20705;-89
2022/10/16 11:33:08;;;;;;;4.22;2.83;;;22.20;92.20;;;;;;5037969;28;20794;-89
2022/10/16 11:35:39;;;;;;;3.10;2.90;;;21.90;91.70;;;;;;5049145;28;20219;-89
2022/10/16 11:38:28;;;;;;;3.92;3.05;;;21.70;92.20;;;;;;5048848;28;20562;-89
2022/10/16 11:41:00;;;;;;;4.53;2.90;;;21.80;91.90;;;;;;5038196;28;20188;-89
2022/10/16 11:43:34;;;;;;;4.80;3.08;;;22.00;90.40;;;;;;5038893;28;20200;-89
2022/10/16 11:46:08;;;;;;;6.40;3.05;;;22.00;90.60;;;;;;5040095;28;20207;-89
2022/10/16 11:48:45;;;;;;;4.25;3.03;;;22.40;90.70;;;;;;5042390;28;20196;-89
2022/10/16 11:51:16;;;;;;;3.47;3.17;;;22.60;88.80;;;;;;5040243;28;20308;-89
2022/10/16 11:54:00;;;;;;;3.03;2.83;;;22.80;87.90;;;;;;5035074;28;20185;-89
2022/10/16 11:56:27;;;;;;;5.57;3.13;;;23.40;85.40;;;;;;5040964;28;20195;-89
2022/10/16 11:58:58;;;;;;;3.17;2.90;;;23.50;84.00;;;;;;5042381;28;20181;-88
2022/10/16 12:01:27;;;;;;;3.85;2.75;;;23.40;82.50;;;;;;5045318;28;20188;-88
2022/10/16 12:04:11;;;;;;;3.10;2.88;;;23.10;86.60;;;;;;5047848;28;20761;-88
2022/10/16 12:06:51;;;;;;;3.67;2.80;;;23.20;85.10;;;;;;5030831;28;20186;-88
2022/10/16 12:09:25;;;;;;;4.05;3.10;;;23.00;81.90;;;;;;5039676;28;20244;-88
2022/10/16 12:11:51;;;;;;;3.22;3.03;;;23.00;82.20;;;;;;5037337;28;20216;-88
2022/10/16 12:14:42;;;;;;;3.28;2.97;;;22.80;86.80;;;;;;5042673;28;20234;-88
2022/10/16 12:17:20;;;;;;;4.78;2.70;;;22.70;83.40;;;;;;5044970;28;20200;-88
2022/10/16 12:19:57;;;;;;;3.53;3.10;;;22.60;82.00;;;;;;5035492;28;20184;-88
2022/10/16 12:22:25;;;;;;;3.00;2.75;;;22.60;85.00;;;;;;5038559;28;20213;-88
2022/10/16 12:24:51;;;;;;;3.22;3.03;;;22.60;86.70;;;;;;5044065;28;20177;-89
2022/10/16 12:27:38;;;;;;;3.83;3.50;;;22.50;83.00;;;;;;5041239;28;20191;-88
2022/10/16 12:30:06;;;;;;;3.50;3.20;;;22.70;83.20;;;;;;5044553;28;20370;-88
2022/10/16 12:32:37;;;;;;;3.28;2.97;;;22.40;84.00;;;;;;5044936;28;20205;-88
2022/10/16 12:35:05;;;;;;;5.10;3.47;;;22.40;86.30;;;;;;5039517;28;20178;-88
2022/10/16 12:37:35;;;;;;;4.53;3.08;;;22.30;89.20;;;;;;5042828;28;20267;-88
2022/10/16 12:40:13;;;;;;;3.55;3.25;;;22.30;89.50;;;;;;5040994;28;20181;-87
2022/10/16 12:42:39;;;;;;;3.30;3.10;;;22.30;89.50;;;;;;5038176;28;20243;-88
2022/10/16 12:45:31;;;;;;;3.08;2.88;;;22.50;88.30;;;;;;5041484;28;20181;-88
2022/10/16 12:47:58;;;;;;;4.00;2.97;;;22.70;86.70;;;;;;5044547;28;20247;-88
2022/10/16 12:50:25;;;;;;;4.00;2.90;;;22.60;87.20;;;;;;5042248;28;20208;-88
2022/10/16 12:52:51;;;;;;;4.72;3.10;;;22.60;85.90;;;;;;5038745;28;20201;-88
2022/10/16 12:55:19;;;;;;;4.13;2.97;;;22.60;84.90;;;;;;5048304;28;20267;-88
2022/10/16 12:58:03;;;;;;;3.88;3.45;;;22.60;84.30;;;;;;5037522;28;20186;-89
2022/10/16 13:00:36;;;;;;;4.68;3.50;;;22.30;87.30;;;;;;5035279;28;20275;-88
2022/10/16 13:03:38;;;;;;;8.88;3.33;;;22.20;87.60;;;;;;5044243;28;20219;-88
2022/10/16 13:06:24;;;;;;;3.85;3.20;;;22.30;86.20;;;;;;5047301;28;20192;-89